Time;durP1;ratioP1;P1;durP2;ratioP2;P2;SDS_P1;SDS_P2;PMS_P1;PMS_P2;Temp;Humidity;BMP_temperature;BMP_pressure;BME280_temperature;BME280_humidity;BME280_pressure;Samples;Min_cycle;Max_cycle;Signal;HPM_P1;HPM_P2
2021/01/30 00:01:40;;;;;;;;;;;-0.80;99.90;;;;;;5118501;28;19998;-73
2021/01/30 00:04:06;;;;;;;;;;;-0.80;99.90;;;;;;5116959;28;19939;-74
2021/01/30 00:06:32;;;;;;;;;;;-0.80;99.90;;;;;;5115424;28;19931;-74
2021/01/30 00:08:58;;;;;;;;;;;-0.80;99.90;;;;;;5115800;28;20345;-73
2021/01/30 00:11:24;;;;;;;;;;;-0.80;99.90;;;;;;5115360;28;20401;-73
2021/01/30 00:13:50;;;;;;;;;;;-0.80;99.90;;;;;;5115224;28;20340;-72
2021/01/30 00:16:17;;;;;;;;;;;-0.80;99.90;;;;;;5115063;28;19923;-73
2021/01/30 00:18:43;;;;;;;;;;;-0.80;99.90;;;;;;5115174;28;19928;-72
2021/01/30 00:21:10;;;;;;;;;;;-0.80;99.90;;;;;;5115204;28;19923;-73
2021/01/30 00:23:36;;;;;;;;;;;-0.80;99.90;;;;;;5115471;28;19924;-72
2021/01/30 00:26:02;;;;;;;;;;;-0.80;99.90;;;;;;5115090;28;19938;-72
2021/01/30 00:28:28;;;;;;;;;;;-0.80;99.90;;;;;;5114781;28;19923;-73
2021/01/30 00:30:54;;;;;;;;;;;-0.80;99.90;;;;;;5115222;28;19976;-72
2021/01/30 00:33:21;;;;;;;;;;;-0.80;99.90;;;;;;5115085;28;20374;-72
2021/01/30 00:35:47;;;;;;;;;;;-0.90;99.90;;;;;;5128067;27;20397;-72
2021/01/30 00:38:13;;;;;;;;;;;-0.80;99.90;;;;;;5135673;27;19928;-72
2021/01/30 00:40:39;;;;;;;;;;;-0.80;99.90;;;;;;5123346;27;19939;-72
2021/01/30 00:43:05;;;;;;;;;;;-0.90;99.90;;;;;;5131798;27;20313;-71
2021/01/30 00:45:31;;;;;;;;;;;-0.80;99.90;;;;;;5135125;27;20325;-72
2021/01/30 00:47:58;;;;;;;;;;;-0.90;99.90;;;;;;5135401;27;19931;-72
2021/01/30 00:50:25;;;;;;;;;;;-0.90;99.90;;;;;;5135567;27;19930;-72
2021/01/30 00:52:51;;;;;;;;;;;-0.80;99.90;;;;;;5135245;27;19923;-72
2021/01/30 00:55:18;;;;;;;;;;;-1.00;99.90;;;;;;5132882;27;19943;-72
2021/01/30 00:57:44;;;;;;;;;;;-0.90;99.90;;;;;;5121867;27;19947;-72
2021/01/30 01:00:12;;;;;;;;;;;-0.90;99.90;;;;;;5135192;27;19930;-72
2021/01/30 01:02:38;;;;;;;;;;;-0.90;99.90;;;;;;5114793;28;19947;-72
2021/01/30 01:05:05;;;;;;;;;;;-1.00;99.90;;;;;;5114687;28;20385;-72
2021/01/30 01:07:32;;;;;;;;;;;-0.90;99.90;;;;;;5114265;28;19924;-72
2021/01/30 01:09:58;;;;;;;;;;;-0.90;99.90;;;;;;5114378;27;20378;-72
2021/01/30 01:12:24;;;;;;;;;;;-1.00;99.90;;;;;;5114516;27;19927;-72
2021/01/30 01:14:50;;;;;;;;;;;-1.00;99.90;;;;;;5114335;28;19990;-72
2021/01/30 01:17:15;;;;;;;;;;;-1.00;99.90;;;;;;5112652;28;19973;-73
2021/01/30 01:19:41;;;;;;;;;;;-1.00;99.90;;;;;;5114347;27;20301;-72
2021/01/30 01:22:07;;;;;;;;;;;-1.00;99.90;;;;;;5114385;28;19931;-72
2021/01/30 01:24:34;;;;;;;;;;;-1.00;99.90;;;;;;5124225;27;19980;-71
2021/01/30 01:27:00;;;;;;;;;;;-1.00;99.90;;;;;;5133761;27;19923;-71
2021/01/30 01:29:26;;;;;;;;;;;-1.00;99.90;;;;;;5133820;27;20304;-71
2021/01/30 01:31:53;;;;;;;;;;;-1.00;99.90;;;;;;5133342;27;19976;-71
2021/01/30 01:34:20;;;;;;;;;;;-1.00;99.90;;;;;;5134248;27;19924;-71
2021/01/30 01:36:52;;;;;;;;;;;-1.10;99.90;;;;;;5133950;27;19924;-71
2021/01/30 01:39:18;;;;;;;;;;;-1.10;99.90;;;;;;5134069;27;19934;-71
2021/01/30 01:41:45;;;;;;;;;;;-1.10;99.90;;;;;;5134374;27;19927;-72
2021/01/30 01:44:11;;;;;;;;;;;-1.10;99.90;;;;;;5134116;27;19930;-72
2021/01/30 01:46:38;;;;;;;;;;;-1.10;99.90;;;;;;5133989;27;19928;-72
2021/01/30 01:49:07;;;;;;;;;;;-1.10;99.90;;;;;;5134215;27;20010;-72
2021/01/30 01:51:38;;;;;;;;;;;-1.00;99.90;;;;;;5132385;27;19927;-72
2021/01/30 01:54:06;;;;;;;;;;;-1.10;99.90;;;;;;5113665;28;19928;-72
2021/01/30 01:56:33;;;;;;;;;;;-1.10;99.90;;;;;;5112918;28;20390;-72
2021/01/30 01:59:03;;;;;;;;;;;-1.10;99.90;;;;;;5113220;28;19928;-72
2021/01/30 02:01:29;;;;;;;;;;;-1.10;99.90;;;;;;5113091;28;20370;-73
2021/01/30 02:03:57;;;;;;;;;;;-1.10;99.90;;;;;;5113176;28;19924;-72
2021/01/30 02:06:23;;;;;;;;;;;-1.10;99.90;;;;;;5112671;28;19927;-72
2021/01/30 02:08:50;;;;;;;;;;;-1.10;99.90;;;;;;5114374;28;19938;-73
2021/01/30 02:11:16;;;;;;;;;;;-1.20;99.90;;;;;;5113307;28;19954;-73
2021/01/30 02:13:44;;;;;;;;;;;-1.10;99.90;;;;;;5113224;28;19932;-72
2021/01/30 02:16:15;;;;;;;;;;;-1.10;99.90;;;;;;5112796;28;19924;-73
2021/01/30 02:18:47;;;;;;;;;;;-1.10;99.90;;;;;;5112843;28;20297;-73
2021/01/30 02:21:28;;;;;;;;;;;-1.10;99.90;;;;;;5112637;28;19988;-72
2021/01/30 02:24:09;;;;;;;;;;;-1.10;99.90;;;;;;5131526;27;19927;-73
2021/01/30 02:27:00;;;;;;;;;;;-1.20;99.90;;;;;;5132186;27;19923;-73
2021/01/30 02:29:37;;;;;;;;;;;-1.10;99.90;;;;;;5113130;28;19976;-73
2021/01/30 02:32:20;;;;;;;;;;;-1.10;99.90;;;;;;5112740;28;19927;-73
2021/01/30 02:34:52;;;;;;;;;;;-1.10;99.90;;;;;;5113090;28;19982;-73
2021/01/30 02:37:20;;;;;;;;;;;-1.10;99.90;;;;;;5111783;28;19938;-73
2021/01/30 02:39:48;;;;;;;;;;;-1.10;99.90;;;;;;5112791;28;19928;-73
2021/01/30 02:42:15;;;;;;;;;;;-1.10;99.90;;;;;;5112867;28;19949;-72
2021/01/30 02:44:43;;;;;;;;;;;-1.10;99.90;;;;;;5112809;28;19924;-73
2021/01/30 02:47:10;;;;;;;;;;;-1.10;99.90;;;;;;5112304;28;19928;-73
2021/01/30 02:49:38;;;;;;;;;;;-1.10;99.90;;;;;;5112080;28;19924;-73
2021/01/30 02:52:07;;;;;;;;;;;-1.10;99.90;;;;;;5112536;28;20339;-71
2021/01/30 02:54:35;;;;;;;;;;;-1.20;99.90;;;;;;5112718;28;19934;-72
2021/01/30 02:57:01;;;;;;;;;;;-1.10;99.90;;;;;;5112026;28;19931;-73
2021/01/30 02:59:29;;;;;;;;;;;-1.20;99.90;;;;;;5112466;28;19924;-72
2021/01/30 03:01:55;;;;;;;;;;;-1.20;99.90;;;;;;5112173;28;19923;-72
2021/01/30 03:04:22;;;;;;;;;;;-1.20;99.90;;;;;;5112471;28;19924;-73
2021/01/30 03:07:15;;;;;;;;;;;-1.20;99.90;;;;;;5111898;28;19924;-72
2021/01/30 03:09:45;;;;;;;;;;;-1.20;99.90;;;;;;5112700;28;19928;-72
2021/01/30 03:12:14;;;;;;;;;;;-1.20;99.90;;;;;;5112580;28;19931;-73
2021/01/30 03:14:43;;;;;;;;;;;-1.20;99.90;;;;;;5112320;28;20385;-72
2021/01/30 03:17:10;;;;;;;;;;;-1.10;99.90;;;;;;5111784;28;19928;-73
2021/01/30 03:19:36;;;;;;;;;;;-1.20;99.90;;;;;;5112368;28;19930;-73
2021/01/30 03:22:06;;;;;;;;;;;-1.20;99.90;;;;;;5114737;28;19977;-72
2021/01/30 03:24:32;;;;;;;;;;;-1.10;99.90;;;;;;5112634;28;19923;-73
2021/01/30 03:26:59;;;;;;;;;;;-1.10;99.90;;;;;;5111683;28;19923;-72
2021/01/30 03:29:25;;;;;;;;;;;-1.10;99.90;;;;;;5112098;28;19927;-72
2021/01/30 03:31:51;;;;;;;;;;;-1.10;99.90;;;;;;5111985;28;19946;-73
2021/01/30 03:34:17;;;;;;;;;;;-1.20;99.90;;;;;;5112562;28;19923;-73
2021/01/30 03:36:44;;;;;;;;;;;-1.20;99.90;;;;;;5111978;28;19935;-73
2021/01/30 03:39:11;;;;;;;;;;;-1.20;99.90;;;;;;5112920;28;19924;-73
2021/01/30 03:41:37;;;;;;;;;;;-1.20;99.90;;;;;;5116066;28;20036;-72
2021/01/30 03:44:04;;;;;;;;;;;-1.30;99.90;;;;;;5115833;28;19949;-73
2021/01/30 03:46:30;;;;;;;;;;;-1.30;99.90;;;;;;5115644;28;20313;-73
2021/01/30 03:48:56;;;;;;;;;;;-1.30;99.90;;;;;;5116191;28;19924;-73
2021/01/30 03:51:22;;;;;;;;;;;-1.30;99.90;;;;;;5115887;28;20001;-73
2021/01/30 03:53:48;;;;;;;;;;;-1.30;99.90;;;;;;5115489;28;20040;-72
2021/01/30 03:56:14;;;;;;;;;;;-1.30;99.90;;;;;;5115260;28;19928;-72
2021/01/30 03:58:40;;;;;;;;;;;-1.30;99.90;;;;;;5115689;28;19924;-72
2021/01/30 04:01:08;;;;;;;;;;;-1.30;99.90;;;;;;5115495;28;20370;-72
2021/01/30 04:03:34;;;;;;;;;;;-1.30;99.90;;;;;;5115864;28;19927;-73
2021/01/30 04:06:00;;;;;;;;;;;-1.30;99.90;;;;;;5126265;27;20297;-73
2021/01/30 04:08:25;;;;;;;;;;;-1.30;99.90;;;;;;5135860;27;19984;-73
2021/01/30 04:10:51;;;;;;;;;;;-1.30;99.90;;;;;;5136268;27;20354;-72
2021/01/30 04:13:18;;;;;;;;;;;-1.30;99.90;;;;;;5122193;27;19924;-72
2021/01/30 04:15:45;;;;;;;;;;;-1.20;99.90;;;;;;5115339;28;20366;-72
2021/01/30 04:18:12;;;;;;;;;;;-1.20;99.90;;;;;;5115567;28;19928;-73
2021/01/30 04:20:38;;;;;;;;;;;-1.30;99.90;;;;;;5115637;27;19930;-71
2021/01/30 04:23:04;;;;;;;;;;;-1.30;99.90;;;;;;5126892;27;19924;-71
2021/01/30 04:25:30;;;;;;;;;;;-1.30;99.90;;;;;;5129258;27;19976;-69
2021/01/30 04:27:57;;;;;;;;;;;-1.30;99.90;;;;;;5135527;27;19928;-70
2021/01/30 04:30:24;;;;;;;;;;;-1.30;99.90;;;;;;5135917;27;19924;-69
2021/01/30 04:32:50;;;;;;;;;;;-1.20;99.90;;;;;;5135876;27;20331;-72
2021/01/30 04:35:17;;;;;;;;;;;-1.20;99.90;;;;;;5128635;27;20353;-73
2021/01/30 04:37:44;;;;;;;;;;;-1.20;99.90;;;;;;5115301;28;19928;-74
2021/01/30 04:40:15;;;;;;;;;;;-1.30;99.90;;;;;;5119288;27;19968;-73
2021/01/30 04:42:46;;;;;;;;;;;-1.30;99.90;;;;;;5135882;27;19930;-72
2021/01/30 04:45:14;;;;;;;;;;;-1.30;99.90;;;;;;5131771;27;19924;-71
2021/01/30 04:47:52;;;;;;;;;;;-1.30;99.90;;;;;;5114627;28;19924;-72
2021/01/30 04:50:23;;;;;;;;;;;-1.30;99.90;;;;;;5114715;28;19924;-72
2021/01/30 04:52:52;;;;;;;;;;;-1.20;99.90;;;;;;5114696;28;19924;-72
2021/01/30 04:55:32;;;;;;;;;;;-1.20;99.90;;;;;;5114772;28;19924;-73
2021/01/30 04:58:02;;;;;;;;;;;-1.20;99.90;;;;;;5114928;28;19976;-73
2021/01/30 05:00:32;;;;;;;;;;;-1.20;99.90;;;;;;5114567;28;20267;-72
2021/01/30 05:03:11;;;;;;;;;;;-1.20;99.90;;;;;;5114579;28;20379;-72
2021/01/30 05:05:39;;;;;;;;;;;-1.20;99.90;;;;;;5114564;28;19928;-72
2021/01/30 05:08:08;;;;;;;;;;;-1.20;99.90;;;;;;5114663;28;19977;-72
2021/01/30 05:10:38;;;;;;;;;;;-1.10;99.90;;;;;;5114553;28;19932;-73
2021/01/30 05:13:08;;;;;;;;;;;-1.10;99.90;;;;;;5114499;28;19939;-72
2021/01/30 05:15:37;;;;;;;;;;;-1.20;99.90;;;;;;5114014;28;19928;-72
2021/01/30 05:18:06;;;;;;;;;;;-1.20;99.90;;;;;;5114160;28;20389;-72
2021/01/30 05:20:33;;;;;;;;;;;-1.20;99.90;;;;;;5114440;28;19928;-72
2021/01/30 05:23:00;;;;;;;;;;;-1.10;99.90;;;;;;5114362;28;19928;-72
2021/01/30 05:25:27;;;;;;;;;;;-1.10;99.90;;;;;;5113992;28;19924;-72
2021/01/30 05:28:17;;;;;;;;;;;-1.20;99.90;;;;;;5114475;28;20449;-72
2021/01/30 05:30:53;;;;;;;;;;;-1.20;99.90;;;;;;5098261;28;19924;-72
2021/01/30 05:33:29;;;;;;;;;;;-1.10;99.90;;;;;;5114227;28;19923;-73
2021/01/30 05:35:58;;;;;;;;;;;-1.10;99.90;;;;;;5113727;28;19925;-72
2021/01/30 05:38:32;;;;;;;;;;;-1.10;99.90;;;;;;5114015;28;20026;-72
2021/01/30 05:41:00;;;;;;;;;;;-1.10;99.90;;;;;;5114037;28;19931;-72
2021/01/30 05:43:31;;;;;;;;;;;-1.20;99.90;;;;;;5114043;28;19924;-72
2021/01/30 05:45:58;;;;;;;;;;;-1.10;99.90;;;;;;5113574;28;19924;-72
2021/01/30 05:48:25;;;;;;;;;;;-1.10;99.90;;;;;;5114519;28;19935;-72
2021/01/30 05:50:53;;;;;;;;;;;-1.10;99.90;;;;;;5113707;28;19930;-72
2021/01/30 05:53:20;;;;;;;;;;;-1.10;99.90;;;;;;5113601;28;19963;-72
2021/01/30 05:55:47;;;;;;;;;;;-1.10;99.90;;;;;;5113239;28;19928;-72
2021/01/30 05:58:15;;;;;;;;;;;-1.10;99.90;;;;;;5113560;28;19924;-72
2021/01/30 06:00:41;;;;;;;;;;;-1.10;99.90;;;;;;5113522;28;19931;-72
2021/01/30 06:03:09;;;;;;;;;;;-1.00;99.90;;;;;;5112883;28;19924;-72
2021/01/30 06:05:36;;;;;;;;;;;-1.00;99.90;;;;;;5113116;28;19924;-72
2021/01/30 06:08:16;;;;;;;;;;;-1.00;99.90;;;;;;5113253;28;19923;-72
2021/01/30 06:10:43;;;;;;;;;;;-1.00;99.90;;;;;;5113405;28;20011;-72
2021/01/30 06:13:14;;;;;;;;;;;-1.00;99.90;;;;;;5113401;28;20301;-72
2021/01/30 06:15:42;;;;;;;;;;;-1.00;99.90;;;;;;5113076;28;19946;-72
2021/01/30 06:18:28;;;;;;;;;;;-1.00;99.90;;;;;;5113114;28;20449;-72
2021/01/30 06:21:05;;;;;;;;;;;-1.00;99.90;;;;;;5113416;28;19935;-72
2021/01/30 06:23:32;;;;;;;;;;;-1.00;99.90;;;;;;5113301;28;19923;-72
2021/01/30 06:26:14;;;;;;;;;;;-1.00;99.90;;;;;;5112887;28;19924;-76
2021/01/30 06:28:42;;;;;;;;;;;-1.00;99.90;;;;;;5113069;28;19924;-72
2021/01/30 06:31:09;;;;;;;;;;;-1.00;99.90;;;;;;5113246;28;19923;-72
2021/01/30 06:33:36;;;;;;;;;;;-1.10;99.90;;;;;;5113214;28;19934;-73
2021/01/30 06:36:08;;;;;;;;;;;-1.10;99.90;;;;;;5112651;28;19924;-72
2021/01/30 06:38:41;;;;;;;;;;;-1.00;99.90;;;;;;5112958;28;20140;-72
2021/01/30 06:41:16;;;;;;;;;;;-1.10;99.90;;;;;;5112801;28;20305;-72
2021/01/30 06:43:44;;;;;;;;;;;-1.10;99.90;;;;;;5113791;28;19923;-70
2021/01/30 06:46:12;;;;;;;;;;;-1.10;99.90;;;;;;5112536;28;19927;-70
2021/01/30 06:48:39;;;;;;;;;;;-1.10;99.90;;;;;;5112833;28;19946;-70
2021/01/30 06:51:25;;;;;;;;;;;1.00;99.90;;;;;;5113080;28;19930;-70
2021/01/30 06:53:51;;;;;;;;;;;-1.20;99.90;;;;;;5112756;28;19935;-70
2021/01/30 06:56:22;;;;;;;;;;;-1.20;99.90;;;;;;5112113;28;20378;-70
2021/01/30 06:58:50;;;;;;;;;;;-1.10;99.90;;;;;;5112562;28;19931;-70
2021/01/30 07:01:20;;;;;;;;;;;-1.10;99.90;;;;;;5112713;28;19931;-71
2021/01/30 07:04:08;;;;;;;;;;;-1.10;99.90;;;;;;5112660;28;19931;-71
2021/01/30 07:06:41;;;;;;;;;;;-1.00;99.90;;;;;;5112417;28;19946;-70
2021/01/30 07:09:12;;;;;;;;;;;-1.00;99.90;;;;;;5112744;28;19955;-71
2021/01/30 07:11:52;;;;;;;;;;;-0.90;99.90;;;;;;5112671;28;19969;-69
2021/01/30 07:14:25;;;;;;;;;;;-1.00;99.90;;;;;;5114883;28;19969;-70
2021/01/30 07:16:55;;;;;;;;;;;-1.00;99.90;;;;;;5116175;28;19924;-69
2021/01/30 07:19:26;;;;;;;;;;;-1.00;99.90;;;;;;5116793;28;19923;-70
2021/01/30 07:21:56;;;;;;;;;;;-1.00;99.90;;;;;;5116619;28;19927;-70
2021/01/30 07:24:23;;;;;;;;;;;-1.00;99.90;;;;;;5116610;28;19934;-70
2021/01/30 07:26:52;;;;;;;;;;;-1.00;99.90;;;;;;5116102;28;19928;-69
2021/01/30 07:29:25;;;;;;;;;;;-1.00;99.90;;;;;;5116324;28;20382;-70
2021/01/30 07:31:55;;;;;;;;;;;-0.90;99.90;;;;;;5116553;28;19931;-70
2021/01/30 07:34:22;;;;;;;;;;;-0.80;99.90;;;;;;5116467;28;19924;-70
2021/01/30 07:36:51;;;;;;;;;;;-0.80;99.90;;;;;;5115847;28;19931;-71
2021/01/30 07:39:26;;;;;;;;;;;-0.60;99.90;;;;;;5116325;28;19959;-70
2021/01/30 07:41:54;;;;;;;;;;;-0.60;99.90;;;;;;5116180;28;19924;-70
2021/01/30 07:44:24;;;;;;;;;;;-0.50;99.90;;;;;;5116300;28;19924;-70
2021/01/30 07:46:59;;;;;;;;;;;-0.40;99.90;;;;;;5115972;28;19923;-70
2021/01/30 07:49:26;;;;;;;;;;;-0.40;99.90;;;;;;5116041;28;19924;-70
2021/01/30 07:51:56;;;;;;;;;;;-0.30;99.90;;;;;;5115920;28;19977;-70
2021/01/30 07:54:22;;;;;;;;;;;-0.20;99.90;;;;;;5115970;28;19924;-69
2021/01/30 07:56:58;;;;;;;;;;;-0.10;99.90;;;;;;5115337;28;19931;-70
2021/01/30 07:59:32;;;;;;;;;;;-0.10;99.90;;;;;;5116071;28;19934;-70
2021/01/30 08:02:07;;;;;;;;;;;0.10;99.90;;;;;;5115860;28;19924;-70
2021/01/30 08:04:52;;;;;;;;;;;0.20;99.90;;;;;;5115797;28;19928;-71
2021/01/30 08:07:27;;;;;;;;;;;0.40;99.90;;;;;;5115381;28;20000;-70
2021/01/30 08:09:58;;;;;;;;;;;0.60;99.90;;;;;;5115743;28;19924;-70
2021/01/30 08:12:34;;;;;;;;;;;0.70;99.90;;;;;;5115704;28;19923;-70
2021/01/30 08:15:02;;;;;;;;;;;0.80;99.90;;;;;;5115610;28;20442;-70
2021/01/30 08:17:38;;;;;;;;;;;0.80;99.90;;;;;;5115331;28;19923;-70
2021/01/30 08:20:07;;;;;;;;;;;0.80;99.90;;;;;;5115352;28;20369;-70
2021/01/30 08:22:35;;;;;;;;;;;0.80;99.90;;;;;;5115489;28;19923;-70
2021/01/30 08:25:03;;;;;;;;;;;0.80;99.90;;;;;;5114838;28;19924;-70
2021/01/30 08:27:31;;;;;;;;;;;0.80;99.90;;;;;;5114873;28;20420;-69
2021/01/30 08:30:00;;;;;;;;;;;0.80;99.90;;;;;;5115528;28;19924;-70
2021/01/30 08:32:47;;;;;;;;;;;0.90;99.90;;;;;;5115395;28;19923;-70
2021/01/30 08:35:35;;;;;;;;;;;0.80;99.90;;;;;;5109830;28;20061;-71
2021/01/30 08:38:03;;;;;;;;;;;0.80;99.90;;;;;;5110338;28;20412;-69
2021/01/30 08:40:44;;;;;;;;;;;0.90;99.90;;;;;;5115136;28;19946;-71
2021/01/30 08:43:12;;;;;;;;;;;0.90;99.90;;;;;;5112311;28;19924;-70
2021/01/30 08:45:38;;;;;;;;;;;0.90;99.90;;;;;;5114720;28;19976;-70
2021/01/30 08:48:08;;;;;;;;;;;1.00;99.90;;;;;;5114796;28;20335;-70
2021/01/30 08:50:38;;;;;;;;;;;1.10;99.90;;;;;;5114821;28;19930;-70
2021/01/30 08:53:12;;;;;;;;;;;1.20;99.90;;;;;;5114819;28;19927;-70
2021/01/30 08:55:51;;;;;;;;;;;1.20;99.90;;;;;;5114303;28;19931;-70
2021/01/30 08:58:36;;;;;;;;;;;1.30;99.90;;;;;;5114665;28;20423;-70
2021/01/30 09:01:04;;;;;;;;;;;1.50;99.90;;;;;;5114668;28;19924;-69
2021/01/30 09:03:51;;;;;;;;;;;1.60;99.90;;;;;;5114565;28;19924;-70
2021/01/30 09:06:35;;;;;;;;;;;1.70;99.90;;;;;;5108832;28;20392;-70
2021/01/30 09:09:04;;;;;;;;;;;1.70;99.90;;;;;;5114404;28;19927;-69
2021/01/30 09:11:47;;;;;;;;;;;1.80;99.90;;;;;;5114482;28;19931;-70
2021/01/30 09:14:47;;;;;;;;;;;2.00;99.90;;;;;;5114488;28;19928;-70
2021/01/30 09:17:28;;;;;;;;;;;2.20;99.90;;;;;;5113927;28;20400;-70
2021/01/30 09:19:57;;;;;;;;;;;2.40;99.90;;;;;;5114563;28;19936;-70
2021/01/30 09:22:27;;;;;;;;;;;2.50;99.90;;;;;;5114434;28;19923;-70
2021/01/30 09:25:10;;;;;;;;;;;2.60;99.90;;;;;;5114283;28;19931;-70
2021/01/30 09:27:46;;;;;;;;;;;2.80;99.90;;;;;;5113804;28;19930;-70
2021/01/30 09:30:20;;;;;;;;;;;2.90;99.90;;;;;;5114038;28;19924;-70
2021/01/30 09:32:47;;;;;;;;;;;2.80;99.90;;;;;;5114355;28;19923;-70
2021/01/30 09:35:19;;;;;;;;;;;2.80;99.90;;;;;;5114148;28;19971;-69
2021/01/30 09:37:46;;;;;;;;;;;2.80;99.90;;;;;;5112709;28;19924;-69
2021/01/30 09:40:20;;;;;;;;;;;2.90;99.90;;;;;;5113702;28;20443;-69
2021/01/30 09:42:55;;;;;;;;;;;3.00;99.90;;;;;;5113980;28;19931;-70
2021/01/30 09:45:22;;;;;;;;;;;3.30;99.90;;;;;;5113559;28;19931;-69
2021/01/30 09:47:51;;;;;;;;;;;3.70;99.90;;;;;;5113725;28;19924;-70
2021/01/30 09:50:18;;;;;;;;;;;4.20;99.90;;;;;;5113632;28;19938;-70
2021/01/30 09:52:47;;;;;;;;;;;5.00;99.90;;;;;;5113230;28;20389;-70
2021/01/30 09:55:14;;;;;;;;;;;5.60;99.90;;;;;;5113536;28;19923;-70
2021/01/30 09:57:42;;;;;;;;;;;5.80;99.90;;;;;;5113277;28;19924;-70
2021/01/30 10:00:09;;;;;;;;;;;6.00;99.90;;;;;;5113311;28;20374;-70
2021/01/30 10:02:35;;;;;;;;;;;5.80;99.90;;;;;;5113121;28;20413;-70
2021/01/30 10:05:03;;;;;;;;;;;5.80;99.90;;;;;;5113313;28;19924;-70
2021/01/30 10:07:29;;;;;;;;;;;5.80;99.90;;;;;;5112639;28;19928;-70
2021/01/30 10:09:56;;;;;;;;;;;5.80;99.90;;;;;;5113117;28;19939;-70
2021/01/30 10:12:23;;;;;;;;;;;5.90;99.90;;;;;;5113225;28;20412;-71
2021/01/30 10:14:51;;;;;;;;;;;5.90;99.90;;;;;;5113156;28;20377;-70
2021/01/30 10:17:20;;;;;;;;;;;6.10;99.90;;;;;;5112702;28;19931;-70
2021/01/30 10:19:47;;;;;;;;;;;6.30;99.90;;;;;;5113041;28;20339;-71
2021/01/30 10:22:14;;;;;;;;;;;6.50;99.90;;;;;;5112744;28;19980;-70
2021/01/30 10:24:40;;;;;;;;;;;6.40;99.90;;;;;;5113018;28;19927;-70
2021/01/30 10:27:11;;;;;;;;;;;6.10;99.90;;;;;;5112656;28;19934;-71
2021/01/30 10:29:38;;;;;;;;;;;5.80;99.90;;;;;;5113133;28;19924;-71
2021/01/30 10:32:09;;;;;;;;;;;5.60;99.90;;;;;;5112785;28;20382;-71
2021/01/30 10:34:37;;;;;;;;;;;5.40;99.90;;;;;;5112857;28;19930;-70
2021/01/30 10:37:06;;;;;;;;;;;5.10;99.90;;;;;;5112600;28;19934;-70
2021/01/30 10:39:37;;;;;;;;;;;5.20;99.90;;;;;;5112854;28;19931;-70
2021/01/30 10:42:05;;;;;;;;;;;5.40;99.90;;;;;;5112674;28;19950;-70
2021/01/30 10:44:32;;;;;;;;;;;5.50;99.90;;;;;;5112676;28;19931;-71
2021/01/30 10:47:00;;;;;;;;;;;5.60;99.90;;;;;;5112473;28;20287;-71
2021/01/30 10:49:27;;;;;;;;;;;5.30;99.90;;;;;;5112449;28;19924;-71
2021/01/30 10:51:57;;;;;;;;;;;5.30;99.90;;;;;;5112775;28;19930;-71
2021/01/30 10:54:25;;;;;;;;;;;5.10;99.90;;;;;;5112768;28;19939;-71
2021/01/30 10:57:07;;;;;;;;;;;5.00;99.90;;;;;;5112302;28;19924;-70
2021/01/30 10:59:41;;;;;;;;;;;5.00;99.90;;;;;;5112493;28;20405;-71
2021/01/30 11:02:19;;;;;;;;;;;4.80;99.90;;;;;;5112286;28;20374;-71
2021/01/30 11:04:58;;;;;;;;;;;4.70;99.90;;;;;;5112425;28;19924;-71
2021/01/30 11:07:24;;;;;;;;;;;4.60;99.90;;;;;;5112056;28;19928;-70
2021/01/30 11:09:52;;;;;;;;;;;4.20;99.90;;;;;;5112472;28;20290;-70
2021/01/30 11:12:23;;;;;;;;;;;4.00;99.90;;;;;;5112641;28;19928;-71
2021/01/30 11:14:52;;;;;;;;;;;3.90;99.90;;;;;;5112738;28;19924;-71
2021/01/30 11:17:23;;;;;;;;;;;3.90;99.90;;;;;;5112215;28;19924;-71
2021/01/30 11:19:49;;;;;;;;;;;3.70;99.90;;;;;;5112387;28;19977;-70
2021/01/30 11:22:18;;;;;;;;;;;3.70;99.90;;;;;;5112191;28;19927;-70
2021/01/30 11:24:47;;;;;;;;;;;3.50;99.90;;;;;;5112361;28;19931;-70
2021/01/30 11:27:30;;;;;;;;;;;3.50;99.90;;;;;;5112267;28;19924;-70
2021/01/30 11:29:56;;;;;;;;;;;3.30;99.90;;;;;;5112406;28;19924;-70
2021/01/30 11:32:24;;;;;;;;;;;3.30;99.90;;;;;;5112404;28;19928;-70
2021/01/30 11:34:52;;;;;;;;;;;3.30;99.90;;;;;;5112218;28;20325;-70
2021/01/30 11:37:18;;;;;;;;;;;3.50;99.90;;;;;;5112107;28;19924;-70
2021/01/30 11:39:44;;;;;;;;;;;3.60;99.90;;;;;;5112167;28;19981;-71
2021/01/30 11:42:10;;;;;;;;;;;3.60;99.90;;;;;;5112331;28;19931;-71
2021/01/30 11:44:36;;;;;;;;;;;3.70;99.90;;;;;;5112116;28;19935;-71
2021/01/30 11:47:02;;;;;;;;;;;3.80;99.90;;;;;;5111868;28;19931;-71
2021/01/30 11:49:29;;;;;;;;;;;3.90;99.90;;;;;;5112143;28;19932;-71
2021/01/30 11:51:55;;;;;;;;;;;4.10;99.90;;;;;;5112341;28;19977;-71
2021/01/30 11:54:21;;;;;;;;;;;4.30;99.90;;;;;;5112286;28;19923;-71
2021/01/30 11:56:47;;;;;;;;;;;4.60;99.90;;;;;;5112415;28;19940;-71
2021/01/30 11:59:14;;;;;;;;;;;5.10;99.90;;;;;;5112278;28;19924;-71
2021/01/30 12:01:41;;;;;;;;;;;5.90;99.90;;;;;;5114785;28;19923;-71
2021/01/30 12:04:07;;;;;;;;;;;7.30;99.90;;;;;;5115823;28;19931;-71
2021/01/30 12:06:34;;;;;;;;;;;8.70;95.00;;;;;;5115432;28;19931;-71
2021/01/30 12:09:00;;;;;;;;;;;9.70;87.10;;;;;;5115746;28;19928;-71
2021/01/30 12:11:26;;;;;;;;;;;10.30;81.50;;;;;;5115736;28;19969;-72
2021/01/30 12:13:52;;;;;;;;;;;11.40;76.50;;;;;;5115593;28;19928;-70
2021/01/30 12:16:20;;;;;;;;;;;12.50;66.70;;;;;;5115204;28;20309;-71
2021/01/30 12:18:46;;;;;;;;;;;12.50;67.40;;;;;;5115353;28;19924;-71
2021/01/30 12:21:12;;;;;;;;;;;13.10;63.60;;;;;;5115272;28;20443;-71
2021/01/30 12:23:39;;;;;;;;;;;13.70;60.90;;;;;;5115500;28;19927;-71
2021/01/30 12:26:05;;;;;;;;;;;14.10;60.00;;;;;;5115012;28;19927;-71
2021/01/30 12:28:33;;;;;;;;;;;13.60;58.30;;;;;;5115170;28;19923;-71
2021/01/30 12:30:58;;;;;;;;;;;12.90;59.20;;;;;;5115197;28;19924;-70
2021/01/30 12:33:24;;;;;;;;;;;12.40;60.10;;;;;;5115094;28;19973;-71
2021/01/30 12:35:50;;;;;;;;;;;11.70;61.90;;;;;;5114695;28;20400;-72
2021/01/30 12:38:17;;;;;;;;;;;10.50;63.40;;;;;;5115465;28;19923;-71
2021/01/30 12:40:45;;;;;;;;;;;9.20;66.90;;;;;;5115072;28;19930;-71
2021/01/30 12:43:12;;;;;;;;;;;8.00;71.20;;;;;;5115105;28;19977;-70
2021/01/30 12:45:38;;;;;;;;;;;7.40;75.70;;;;;;5114640;28;19923;-71
2021/01/30 12:48:05;;;;;;;;;;;6.70;79.00;;;;;;5114880;28;19971;-71
2021/01/30 12:50:34;;;;;;;;;;;6.40;86.20;;;;;;5115120;28;20385;-71
2021/01/30 12:53:00;;;;;;;;;;;6.20;88.90;;;;;;5115048;28;19924;-72
2021/01/30 12:55:26;;;;;;;;;;;5.90;92.00;;;;;;5114436;28;19930;-71
2021/01/30 12:57:53;;;;;;;;;;;5.70;94.40;;;;;;5114524;28;19924;-70
2021/01/30 13:00:21;;;;;;;;;;;5.70;95.90;;;;;;5114526;28;20301;-70
2021/01/30 13:02:47;;;;;;;;;;;6.80;95.50;;;;;;5114538;28;19923;-71
2021/01/30 13:05:13;;;;;;;;;;;7.40;91.60;;;;;;5114709;28;19924;-71
2021/01/30 13:07:41;;;;;;;;;;;7.90;87.80;;;;;;5114388;28;19969;-71
2021/01/30 13:10:09;;;;;;;;;;;9.00;82.60;;;;;;5114761;28;20002;-71
2021/01/30 13:12:35;;;;;;;;;;;10.20;75.00;;;;;;5114164;28;19935;-71
2021/01/30 13:15:02;;;;;;;;;;;11.30;69.00;;;;;;5114145;28;19924;-71
2021/01/30 13:17:28;;;;;;;;;;;12.20;64.00;;;;;;5114089;28;19923;-70
2021/01/30 13:19:54;;;;;;;;;;;12.50;60.50;;;;;;5114388;28;19935;-70
2021/01/30 13:22:20;;;;;;;;;;;11.80;60.00;;;;;;5114234;28;20278;-71
2021/01/30 13:24:46;;;;;;;;;;;14.00;64.70;;;;;;5114226;28;19928;-70
2021/01/30 13:27:12;;;;;;;;;;;9.70;66.20;;;;;;5113686;28;20431;-70
2021/01/30 13:29:40;;;;;;;;;;;9.00;67.90;;;;;;5114035;28;19924;-70
2021/01/30 13:32:07;;;;;;;;;;;8.30;70.80;;;;;;5114035;28;19923;-69
2021/01/30 13:34:34;;;;;;;;;;;7.60;73.80;;;;;;5114164;28;19928;-70
2021/01/30 13:37:00;;;;;;;;;;;7.00;77.20;;;;;;5113694;28;19931;-70
2021/01/30 13:39:26;;;;;;;;;;;6.60;80.80;;;;;;5113990;28;19923;-70
2021/01/30 13:41:52;;;;;;;;;;;6.20;84.20;;;;;;5113641;28;19927;-70
2021/01/30 13:44:18;;;;;;;;;;;5.90;89.30;;;;;;5114058;28;19923;-70
2021/01/30 13:46:44;;;;;;;;;;;5.70;93.10;;;;;;5113365;28;19928;-70
2021/01/30 13:49:11;;;;;;;;;;;5.40;94.90;;;;;;5113801;28;19924;-70
2021/01/30 13:51:37;;;;;;;;;;;5.20;98.30;;;;;;5113798;28;19931;-70
2021/01/30 13:54:04;;;;;;;;;;;5.10;99.90;;;;;;5113621;28;19924;-70
2021/01/30 13:56:30;;;;;;;;;;;5.00;99.90;;;;;;5113069;28;19923;-70
2021/01/30 13:58:56;;;;;;;;;;;4.90;99.90;;;;;;5113729;28;19928;-70
2021/01/30 14:01:21;;;;;;;;;;;4.90;99.90;;;;;;5113516;28;19976;-70
2021/01/30 14:03:47;;;;;;;;;;;4.80;99.90;;;;;;5113577;28;20405;-69
2021/01/30 14:06:14;;;;;;;;;;;4.90;99.90;;;;;;5113166;28;19977;-70
2021/01/30 14:08:40;;;;;;;;;;;5.10;99.90;;;;;;5113479;28;19924;-69
2021/01/30 14:11:06;;;;;;;;;;;6.20;99.90;;;;;;5113561;28;20377;-69
2021/01/30 14:13:32;;;;;;;;;;;7.30;93.80;;;;;;5114573;28;19924;-69
2021/01/30 14:15:58;;;;;;;;;;;8.40;86.00;;;;;;5112908;28;19924;-69
2021/01/30 14:18:24;;;;;;;;;;;9.40;77.90;;;;;;5113157;28;19924;-69
2021/01/30 14:20:50;;;;;;;;;;;10.10;72.30;;;;;;5113059;28;19971;-69
2021/01/30 14:23:17;;;;;;;;;;;10.00;70.80;;;;;;5112449;28;19924;-69
2021/01/30 14:25:43;;;;;;;;;;;8.60;71.10;;;;;;5112576;28;19987;-69
2021/01/30 14:28:09;;;;;;;;;;;8.90;73.90;;;;;;5113064;28;19935;-69
2021/01/30 14:30:35;;;;;;;;;;;8.10;77.20;;;;;;5113178;28;19928;-70
2021/01/30 14:33:02;;;;;;;;;;;7.40;80.70;;;;;;5113045;28;19977;-69